sensor_id;sensor_type;location;lat;lon;timestamp;P1;durP1;ratioP1;P2;durP2;ratioP2
72920;SDS011;61064;51.654;5.476;2024-02-21T00:01:22;16.13;;;5.87;;
72920;SDS011;61064;51.654;5.476;2024-02-21T00:03:47;20.90;;;6.35;;
72920;SDS011;61064;51.654;5.476;2024-02-21T00:06:13;20.00;;;6.03;;
72920;SDS011;61064;51.654;5.476;2024-02-21T00:08:38;18.87;;;6.23;;
72920;SDS011;61064;51.654;5.476;2024-02-21T00:11:03;16.57;;;6.00;;
72920;SDS011;61064;51.654;5.476;2024-02-21T00:13:29;20.40;;;5.93;;
72920;SDS011;61064;51.654;5.476;2024-02-21T00:15:54;20.07;;;6.50;;
72920;SDS011;61064;51.654;5.476;2024-02-21T00:18:20;21.60;;;6.75;;
72920;SDS011;61064;51.654;5.476;2024-02-21T00:20:45;21.17;;;6.30;;
72920;SDS011;61064;51.654;5.476;2024-02-21T00:23:11;20.37;;;6.40;;
72920;SDS011;61064;51.654;5.476;2024-02-21T00:25:39;22.40;;;6.27;;
72920;SDS011;61064;51.654;5.476;2024-02-21T00:28:04;16.70;;;5.93;;
72920;SDS011;61064;51.654;5.476;2024-02-21T00:30:33;19.98;;;6.38;;
72920;SDS011;61064;51.654;5.476;2024-02-21T00:32:58;20.27;;;6.67;;
72920;SDS011;61064;51.654;5.476;2024-02-21T00:35:24;18.27;;;6.10;;
72920;SDS011;61064;51.654;5.476;2024-02-21T00:37:52;20.98;;;6.60;;
72920;SDS011;61064;51.654;5.476;2024-02-21T00:40:17;19.23;;;6.57;;
72920;SDS011;61064;51.654;5.476;2024-02-21T00:42:45;19.73;;;6.38;;
72920;SDS011;61064;51.654;5.476;2024-02-21T00:45:11;20.45;;;6.75;;
72920;SDS011;61064;51.654;5.476;2024-02-21T00:47:36;23.27;;;6.87;;
72920;SDS011;61064;51.654;5.476;2024-02-21T00:50:05;20.60;;;6.77;;
72920;SDS011;61064;51.654;5.476;2024-02-21T00:52:32;18.33;;;6.43;;
72920;SDS011;61064;51.654;5.476;2024-02-21T00:54:58;24.17;;;6.67;;
72920;SDS011;61064;51.654;5.476;2024-02-21T00:57:23;24.80;;;7.20;;
72920;SDS011;61064;51.654;5.476;2024-02-21T00:59:49;21.07;;;5.70;;
72920;SDS011;61064;51.654;5.476;2024-02-21T01:02:14;16.70;;;6.80;;
72920;SDS011;61064;51.654;5.476;2024-02-21T01:04:39;19.30;;;7.27;;
72920;SDS011;61064;51.654;5.476;2024-02-21T01:07:05;19.03;;;6.37;;
72920;SDS011;61064;51.654;5.476;2024-02-21T01:09:30;18.52;;;6.45;;
72920;SDS011;61064;51.654;5.476;2024-02-21T01:11:56;21.17;;;6.90;;
72920;SDS011;61064;51.654;5.476;2024-02-21T01:14:21;19.60;;;6.30;;
72920;SDS011;61064;51.654;5.476;2024-02-21T01:16:46;20.17;;;6.03;;
72920;SDS011;61064;51.654;5.476;2024-02-21T01:19:12;18.63;;;6.10;;
72920;SDS011;61064;51.654;5.476;2024-02-21T01:21:37;22.23;;;6.47;;
72920;SDS011;61064;51.654;5.476;2024-02-21T01:24:08;19.90;;;5.80;;
72920;SDS011;61064;51.654;5.476;2024-02-21T01:26:33;16.58;;;5.90;;
72920;SDS011;61064;51.654;5.476;2024-02-21T01:28:59;19.00;;;5.80;;
72920;SDS011;61064;51.654;5.476;2024-02-21T01:31:24;19.27;;;6.23;;
72920;SDS011;61064;51.654;5.476;2024-02-21T01:33:49;17.57;;;5.27;;
72920;SDS011;61064;51.654;5.476;2024-02-21T01:36:15;18.57;;;5.60;;
72920;SDS011;61064;51.654;5.476;2024-02-21T01:38:40;18.40;;;6.00;;
72920;SDS011;61064;51.654;5.476;2024-02-21T01:41:06;15.97;;;5.47;;
72920;SDS011;61064;51.654;5.476;2024-02-21T01:43:31;18.93;;;5.27;;
72920;SDS011;61064;51.654;5.476;2024-02-21T01:45:56;17.10;;;5.22;;
72920;SDS011;61064;51.654;5.476;2024-02-21T01:48:25;17.13;;;5.37;;
72920;SDS011;61064;51.654;5.476;2024-02-21T01:50:51;19.55;;;5.20;;
72920;SDS011;61064;51.654;5.476;2024-02-21T01:53:26;21.27;;;5.03;;
72920;SDS011;61064;51.654;5.476;2024-02-21T01:55:54;15.75;;;4.40;;
72920;SDS011;61064;51.654;5.476;2024-02-21T01:58:20;17.55;;;4.50;;
72920;SDS011;61064;51.654;5.476;2024-02-21T02:00:46;18.63;;;4.83;;
72920;SDS011;61064;51.654;5.476;2024-02-21T02:03:13;14.43;;;4.57;;
72920;SDS011;61064;51.654;5.476;2024-02-21T02:05:42;17.02;;;4.80;;
72920;SDS011;61064;51.654;5.476;2024-02-21T02:08:09;14.60;;;4.30;;
72920;SDS011;61064;51.654;5.476;2024-02-21T02:10:35;20.60;;;4.55;;
72920;SDS011;61064;51.654;5.476;2024-02-21T02:13:02;12.80;;;4.07;;
72920;SDS011;61064;51.654;5.476;2024-02-21T02:15:27;14.33;;;4.30;;
72920;SDS011;61064;51.654;5.476;2024-02-21T02:18:15;13.00;;;4.22;;
72920;SDS011;61064;51.654;5.476;2024-02-21T02:20:41;16.33;;;4.18;;
72920;SDS011;61064;51.654;5.476;2024-02-21T02:23:07;11.53;;;3.40;;
72920;SDS011;61064;51.654;5.476;2024-02-21T02:25:35;15.48;;;4.22;;
72920;SDS011;61064;51.654;5.476;2024-02-21T02:28:02;14.43;;;4.22;;
72920;SDS011;61064;51.654;5.476;2024-02-21T02:30:36;12.97;;;3.70;;
72920;SDS011;61064;51.654;5.476;2024-02-21T02:33:02;13.60;;;3.70;;
72920;SDS011;61064;51.654;5.476;2024-02-21T02:35:29;16.55;;;4.13;;
72920;SDS011;61064;51.654;5.476;2024-02-21T02:37:54;14.80;;;3.63;;
72920;SDS011;61064;51.654;5.476;2024-02-21T02:40:19;11.93;;;3.70;;
72920;SDS011;61064;51.654;5.476;2024-02-21T02:42:45;15.00;;;4.03;;
72920;SDS011;61064;51.654;5.476;2024-02-21T02:45:14;14.43;;;3.63;;
72920;SDS011;61064;51.654;5.476;2024-02-21T02:47:40;16.60;;;3.70;;
72920;SDS011;61064;51.654;5.476;2024-02-21T02:50:06;17.30;;;4.33;;
72920;SDS011;61064;51.654;5.476;2024-02-21T02:52:32;13.63;;;3.53;;
72920;SDS011;61064;51.654;5.476;2024-02-21T02:54:58;13.20;;;3.87;;
72920;SDS011;61064;51.654;5.476;2024-02-21T02:57:23;17.65;;;4.32;;
72920;SDS011;61064;51.654;5.476;2024-02-21T02:59:49;15.00;;;3.80;;
72920;SDS011;61064;51.654;5.476;2024-02-21T03:02:15;14.77;;;3.70;;
72920;SDS011;61064;51.654;5.476;2024-02-21T03:04:41;14.90;;;3.83;;
72920;SDS011;61064;51.654;5.476;2024-02-21T03:07:06;12.03;;;3.30;;
72920;SDS011;61064;51.654;5.476;2024-02-21T03:09:32;14.70;;;3.73;;
72920;SDS011;61064;51.654;5.476;2024-02-21T03:11:57;11.35;;;3.78;;
72920;SDS011;61064;51.654;5.476;2024-02-21T03:14:28;11.87;;;3.50;;
72920;SDS011;61064;51.654;5.476;2024-02-21T03:16:53;13.25;;;3.28;;
72920;SDS011;61064;51.654;5.476;2024-02-21T03:19:19;12.63;;;3.37;;
72920;SDS011;61064;51.654;5.476;2024-02-21T03:21:44;12.43;;;3.10;;
72920;SDS011;61064;51.654;5.476;2024-02-21T03:24:10;13.30;;;3.40;;
72920;SDS011;61064;51.654;5.476;2024-02-21T03:26:35;13.13;;;3.70;;
72920;SDS011;61064;51.654;5.476;2024-02-21T03:29:00;12.70;;;3.00;;
72920;SDS011;61064;51.654;5.476;2024-02-21T03:31:26;15.87;;;4.00;;
72920;SDS011;61064;51.654;5.476;2024-02-21T03:33:51;12.68;;;3.83;;
72920;SDS011;61064;51.654;5.476;2024-02-21T03:36:16;12.07;;;3.40;;
72920;SDS011;61064;51.654;5.476;2024-02-21T03:38:45;11.35;;;3.30;;
72920;SDS011;61064;51.654;5.476;2024-02-21T03:41:10;11.83;;;3.20;;
72920;SDS011;61064;51.654;5.476;2024-02-21T03:43:37;13.17;;;3.50;;
72920;SDS011;61064;51.654;5.476;2024-02-21T03:46:03;9.35;;;3.40;;
72920;SDS011;61064;51.654;5.476;2024-02-21T03:48:28;16.70;;;4.20;;
72920;SDS011;61064;51.654;5.476;2024-02-21T03:50:54;11.83;;;3.23;;
72920;SDS011;61064;51.654;5.476;2024-02-21T03:53:19;13.43;;;3.60;;
72920;SDS011;61064;51.654;5.476;2024-02-21T03:55:44;12.87;;;3.10;;
72920;SDS011;61064;51.654;5.476;2024-02-21T03:58:10;10.70;;;3.67;;
72920;SDS011;61064;51.654;5.476;2024-02-21T04:00:35;12.43;;;3.60;;
72920;SDS011;61064;51.654;5.476;2024-02-21T04:03:00;11.20;;;3.20;;
72920;SDS011;61064;51.654;5.476;2024-02-21T04:05:26;12.57;;;3.53;;
72920;SDS011;61064;51.654;5.476;2024-02-21T04:07:51;13.37;;;4.03;;
72920;SDS011;61064;51.654;5.476;2024-02-21T04:10:18;14.32;;;3.60;;
72920;SDS011;61064;51.654;5.476;2024-02-21T04:12:44;12.93;;;3.63;;
72920;SDS011;61064;51.654;5.476;2024-02-21T04:15:09;14.23;;;4.00;;
72920;SDS011;61064;51.654;5.476;2024-02-21T04:17:35;13.32;;;3.65;;
72920;SDS011;61064;51.654;5.476;2024-02-21T04:20:04;14.07;;;4.20;;
72920;SDS011;61064;51.654;5.476;2024-02-21T04:22:33;13.32;;;3.80;;
72920;SDS011;61064;51.654;5.476;2024-02-21T04:24:59;14.77;;;3.90;;
72920;SDS011;61064;51.654;5.476;2024-02-21T04:27:25;13.25;;;3.92;;
72920;SDS011;61064;51.654;5.476;2024-02-21T04:29:51;14.00;;;3.97;;
72920;SDS011;61064;51.654;5.476;2024-02-21T04:32:17;13.02;;;4.15;;
72920;SDS011;61064;51.654;5.476;2024-02-21T04:34:42;11.77;;;3.73;;
72920;SDS011;61064;51.654;5.476;2024-02-21T04:37:07;13.17;;;3.63;;
72920;SDS011;61064;51.654;5.476;2024-02-21T04:39:33;13.20;;;3.75;;
72920;SDS011;61064;51.654;5.476;2024-02-21T04:41:58;14.93;;;4.37;;
72920;SDS011;61064;51.654;5.476;2024-02-21T04:44:23;10.00;;;3.63;;
72920;SDS011;61064;51.654;5.476;2024-02-21T04:46:49;11.50;;;3.63;;
72920;SDS011;61064;51.654;5.476;2024-02-21T04:49:17;12.40;;;4.53;;
72920;SDS011;61064;51.654;5.476;2024-02-21T04:51:43;12.97;;;4.33;;
72920;SDS011;61064;51.654;5.476;2024-02-21T04:54:08;14.67;;;4.13;;
72920;SDS011;61064;51.654;5.476;2024-02-21T04:56:34;13.93;;;4.57;;
72920;SDS011;61064;51.654;5.476;2024-02-21T04:59:00;12.87;;;4.63;;
72920;SDS011;61064;51.654;5.476;2024-02-21T05:01:28;13.88;;;4.15;;
72920;SDS011;61064;51.654;5.476;2024-02-21T05:03:54;15.20;;;4.50;;
72920;SDS011;61064;51.654;5.476;2024-02-21T05:06:19;15.95;;;4.32;;
72920;SDS011;61064;51.654;5.476;2024-02-21T05:08:44;17.43;;;4.30;;
72920;SDS011;61064;51.654;5.476;2024-02-21T05:11:10;16.37;;;4.40;;
72920;SDS011;61064;51.654;5.476;2024-02-21T05:13:38;15.43;;;3.83;;
72920;SDS011;61064;51.654;5.476;2024-02-21T05:16:04;15.65;;;4.03;;
72920;SDS011;61064;51.654;5.476;2024-02-21T05:18:29;12.20;;;4.00;;
72920;SDS011;61064;51.654;5.476;2024-02-21T05:20:55;15.20;;;4.43;;
72920;SDS011;61064;51.654;5.476;2024-02-21T05:23:20;13.03;;;4.20;;
72920;SDS011;61064;51.654;5.476;2024-02-21T05:25:46;13.97;;;4.47;;
72920;SDS011;61064;51.654;5.476;2024-02-21T05:28:11;13.40;;;4.00;;
72920;SDS011;61064;51.654;5.476;2024-02-21T05:30:36;13.20;;;4.20;;
72920;SDS011;61064;51.654;5.476;2024-02-21T05:33:05;12.80;;;4.13;;
72920;SDS011;61064;51.654;5.476;2024-02-21T05:35:31;13.95;;;3.90;;
72920;SDS011;61064;51.654;5.476;2024-02-21T05:37:56;14.07;;;4.50;;
72920;SDS011;61064;51.654;5.476;2024-02-21T05:40:22;16.87;;;4.53;;
72920;SDS011;61064;51.654;5.476;2024-02-21T05:42:48;15.73;;;4.60;;
72920;SDS011;61064;51.654;5.476;2024-02-21T05:45:13;18.63;;;4.87;;
72920;SDS011;61064;51.654;5.476;2024-02-21T05:47:40;14.97;;;4.70;;
72920;SDS011;61064;51.654;5.476;2024-02-21T05:50:06;13.90;;;4.60;;
72920;SDS011;61064;51.654;5.476;2024-02-21T05:52:31;17.30;;;5.50;;
72920;SDS011;61064;51.654;5.476;2024-02-21T05:54:57;19.83;;;4.65;;
72920;SDS011;61064;51.654;5.476;2024-02-21T05:57:25;18.40;;;5.03;;
72920;SDS011;61064;51.654;5.476;2024-02-21T05:59:51;18.33;;;5.07;;
72920;SDS011;61064;51.654;5.476;2024-02-21T06:02:16;16.08;;;4.93;;
72920;SDS011;61064;51.654;5.476;2024-02-21T06:04:41;14.33;;;4.67;;
72920;SDS011;61064;51.654;5.476;2024-02-21T06:07:10;15.48;;;5.07;;
72920;SDS011;61064;51.654;5.476;2024-02-21T06:09:36;19.60;;;4.60;;
72920;SDS011;61064;51.654;5.476;2024-02-21T06:12:01;17.90;;;5.17;;
72920;SDS011;61064;51.654;5.476;2024-02-21T06:14:26;16.55;;;5.13;;
72920;SDS011;61064;51.654;5.476;2024-02-21T06:16:52;15.23;;;4.83;;
72920;SDS011;61064;51.654;5.476;2024-02-21T06:19:17;16.00;;;4.77;;
72920;SDS011;61064;51.654;5.476;2024-02-21T06:21:43;13.10;;;4.60;;
72920;SDS011;61064;51.654;5.476;2024-02-21T06:24:08;16.20;;;4.57;;
72920;SDS011;61064;51.654;5.476;2024-02-21T06:26:34;18.77;;;4.57;;
72920;SDS011;61064;51.654;5.476;2024-02-21T06:28:59;14.90;;;4.80;;
72920;SDS011;61064;51.654;5.476;2024-02-21T06:31:25;15.83;;;4.70;;
72920;SDS011;61064;51.654;5.476;2024-02-21T06:33:50;15.18;;;4.75;;
72920;SDS011;61064;51.654;5.476;2024-02-21T06:36:16;14.13;;;4.77;;
72920;SDS011;61064;51.654;5.476;2024-02-21T06:38:41;13.80;;;4.40;;
72920;SDS011;61064;51.654;5.476;2024-02-21T06:41:14;13.18;;;4.50;;
72920;SDS011;61064;51.654;5.476;2024-02-21T06:43:40;13.13;;;4.60;;
72920;SDS011;61064;51.654;5.476;2024-02-21T06:46:05;15.50;;;4.87;;
72920;SDS011;61064;51.654;5.476;2024-02-21T06:48:34;13.13;;;4.20;;
72920;SDS011;61064;51.654;5.476;2024-02-21T06:50:59;11.43;;;3.95;;
72920;SDS011;61064;51.654;5.476;2024-02-21T06:53:24;12.73;;;4.10;;
72920;SDS011;61064;51.654;5.476;2024-02-21T06:55:50;14.97;;;4.73;;
72920;SDS011;61064;51.654;5.476;2024-02-21T06:58:15;11.93;;;4.13;;
72920;SDS011;61064;51.654;5.476;2024-02-21T07:00:42;13.27;;;4.05;;
72920;SDS011;61064;51.654;5.476;2024-02-21T07:03:08;15.38;;;4.90;;
72920;SDS011;61064;51.654;5.476;2024-02-21T07:05:33;16.33;;;4.40;;
72920;SDS011;61064;51.654;5.476;2024-02-21T07:07:59;14.03;;;4.40;;
72920;SDS011;61064;51.654;5.476;2024-02-21T07:10:24;14.68;;;4.32;;
72920;SDS011;61064;51.654;5.476;2024-02-21T07:12:50;14.77;;;4.13;;
72920;SDS011;61064;51.654;5.476;2024-02-21T07:15:17;15.10;;;4.88;;
72920;SDS011;61064;51.654;5.476;2024-02-21T07:17:42;14.23;;;4.77;;
72920;SDS011;61064;51.654;5.476;2024-02-21T07:20:08;16.00;;;5.00;;
72920;SDS011;61064;51.654;5.476;2024-02-21T07:22:33;14.15;;;4.40;;
72920;SDS011;61064;51.654;5.476;2024-02-21T07:24:59;16.33;;;4.73;;
72920;SDS011;61064;51.654;5.476;2024-02-21T07:27:24;12.60;;;5.13;;
72920;SDS011;61064;51.654;5.476;2024-02-21T07:29:53;17.38;;;4.72;;
72920;SDS011;61064;51.654;5.476;2024-02-21T07:32:19;14.30;;;4.90;;
72920;SDS011;61064;51.654;5.476;2024-02-21T07:34:44;13.97;;;4.80;;
72920;SDS011;61064;51.654;5.476;2024-02-21T07:37:13;15.15;;;5.07;;
72920;SDS011;61064;51.654;5.476;2024-02-21T07:39:38;14.30;;;4.50;;
72920;SDS011;61064;51.654;5.476;2024-02-21T07:42:03;18.13;;;5.03;;
72920;SDS011;61064;51.654;5.476;2024-02-21T07:44:29;16.43;;;4.60;;
72920;SDS011;61064;51.654;5.476;2024-02-21T07:46:58;12.93;;;4.50;;
72920;SDS011;61064;51.654;5.476;2024-02-21T07:49:23;14.43;;;4.83;;
72920;SDS011;61064;51.654;5.476;2024-02-21T07:51:48;12.25;;;5.10;;
72920;SDS011;61064;51.654;5.476;2024-02-21T07:54:14;15.30;;;4.90;;
72920;SDS011;61064;51.654;5.476;2024-02-21T07:56:39;16.30;;;5.23;;
72920;SDS011;61064;51.654;5.476;2024-02-21T07:59:05;14.73;;;4.80;;
72920;SDS011;61064;51.654;5.476;2024-02-21T08:01:30;15.70;;;4.90;;
72920;SDS011;61064;51.654;5.476;2024-02-21T08:03:56;18.83;;;5.20;;
72920;SDS011;61064;51.654;5.476;2024-02-21T08:06:21;18.30;;;5.00;;
72920;SDS011;61064;51.654;5.476;2024-02-21T08:08:46;15.13;;;4.90;;
72920;SDS011;61064;51.654;5.476;2024-02-21T08:11:12;15.23;;;5.17;;
72920;SDS011;61064;51.654;5.476;2024-02-21T08:13:37;13.07;;;4.63;;
72920;SDS011;61064;51.654;5.476;2024-02-21T08:16:03;14.77;;;4.87;;
72920;SDS011;61064;51.654;5.476;2024-02-21T08:18:28;12.63;;;4.70;;
72920;SDS011;61064;51.654;5.476;2024-02-21T08:20:54;14.70;;;4.40;;
72920;SDS011;61064;51.654;5.476;2024-02-21T08:23:19;13.40;;;5.25;;
72920;SDS011;61064;51.654;5.476;2024-02-21T08:25:44;16.23;;;5.27;;
72920;SDS011;61064;51.654;5.476;2024-02-21T08:28:10;14.27;;;5.00;;
72920;SDS011;61064;51.654;5.476;2024-02-21T08:30:36;13.45;;;4.75;;
72920;SDS011;61064;51.654;5.476;2024-02-21T08:33:02;14.77;;;5.13;;
72920;SDS011;61064;51.654;5.476;2024-02-21T08:35:28;12.65;;;5.18;;
72920;SDS011;61064;51.654;5.476;2024-02-21T08:37:55;14.43;;;4.73;;
72920;SDS011;61064;51.654;5.476;2024-02-21T08:40:20;13.02;;;4.50;;
72920;SDS011;61064;51.654;5.476;2024-02-21T08:42:49;13.10;;;4.63;;
72920;SDS011;61064;51.654;5.476;2024-02-21T08:45:15;14.80;;;4.97;;
72920;SDS011;61064;51.654;5.476;2024-02-21T08:47:41;12.38;;;5.13;;
72920;SDS011;61064;51.654;5.476;2024-02-21T08:50:07;14.33;;;5.07;;
72920;SDS011;61064;51.654;5.476;2024-02-21T08:52:34;12.15;;;4.35;;
72920;SDS011;61064;51.654;5.476;2024-02-21T08:55:00;14.13;;;4.10;;
72920;SDS011;61064;51.654;5.476;2024-02-21T08:57:25;11.90;;;4.03;;
72920;SDS011;61064;51.654;5.476;2024-02-21T08:59:51;10.00;;;3.90;;
72920;SDS011;61064;51.654;5.476;2024-02-21T09:02:18;14.17;;;4.53;;
72920;SDS011;61064;51.654;5.476;2024-02-21T09:04:43;13.43;;;4.15;;
72920;SDS011;61064;51.654;5.476;2024-02-21T09:07:10;11.77;;;3.80;;
72920;SDS011;61064;51.654;5.476;2024-02-21T09:09:36;10.32;;;3.70;;
72920;SDS011;61064;51.654;5.476;2024-02-21T09:12:03;9.70;;;3.50;;
72920;SDS011;61064;51.654;5.476;2024-02-21T09:14:34;10.80;;;3.78;;
72920;SDS011;61064;51.654;5.476;2024-02-21T09:16:59;9.38;;;3.65;;
72920;SDS011;61064;51.654;5.476;2024-02-21T09:19:25;10.93;;;4.13;;
72920;SDS011;61064;51.654;5.476;2024-02-21T09:21:50;9.80;;;3.60;;
72920;SDS011;61064;51.654;5.476;2024-02-21T09:24:17;12.73;;;3.65;;
72920;SDS011;61064;51.654;5.476;2024-02-21T09:26:42;10.77;;;3.75;;
72920;SDS011;61064;51.654;5.476;2024-02-21T09:29:08;10.10;;;3.90;;
72920;SDS011;61064;51.654;5.476;2024-02-21T09:31:33;11.37;;;3.57;;
72920;SDS011;61064;51.654;5.476;2024-02-21T09:33:59;11.50;;;3.97;;
72920;SDS011;61064;51.654;5.476;2024-02-21T09:36:24;9.97;;;4.10;;
72920;SDS011;61064;51.654;5.476;2024-02-21T09:38:50;11.95;;;3.83;;
72920;SDS011;61064;51.654;5.476;2024-02-21T09:41:18;10.43;;;3.97;;
72920;SDS011;61064;51.654;5.476;2024-02-21T09:43:50;11.63;;;4.50;;
72920;SDS011;61064;51.654;5.476;2024-02-21T09:46:18;11.60;;;4.45;;
72920;SDS011;61064;51.654;5.476;2024-02-21T09:52:06;9.30;;;4.45;;
72920;SDS011;61064;51.654;5.476;2024-02-21T09:54:32;10.98;;;4.78;;
72920;SDS011;61064;51.654;5.476;2024-02-21T09:57:04;11.38;;;4.97;;
72920;SDS011;61064;51.654;5.476;2024-02-21T09:59:31;10.82;;;5.05;;
72920;SDS011;61064;51.654;5.476;2024-02-21T10:01:58;11.60;;;4.87;;
72920;SDS011;61064;51.654;5.476;2024-02-21T10:04:26;10.98;;;5.47;;
72920;SDS011;61064;51.654;5.476;2024-02-21T10:06:55;11.65;;;5.28;;
72920;SDS011;61064;51.654;5.476;2024-02-21T10:11:48;12.30;;;5.35;;
72920;SDS011;61064;51.654;5.476;2024-02-21T10:14:14;12.57;;;5.07;;
72920;SDS011;61064;51.654;5.476;2024-02-21T10:16:40;14.73;;;5.63;;
72920;SDS011;61064;51.654;5.476;2024-02-21T10:19:06;12.23;;;5.60;;
72920;SDS011;61064;51.654;5.476;2024-02-21T10:21:31;16.33;;;5.73;;
72920;SDS011;61064;51.654;5.476;2024-02-21T10:23:57;12.40;;;5.20;;
72920;SDS011;61064;51.654;5.476;2024-02-21T10:26:22;13.57;;;5.70;;
72920;SDS011;61064;51.654;5.476;2024-02-21T10:28:48;15.75;;;5.50;;
72920;SDS011;61064;51.654;5.476;2024-02-21T10:31:23;12.80;;;5.23;;
72920;SDS011;61064;51.654;5.476;2024-02-21T10:33:56;12.55;;;5.47;;
72920;SDS011;61064;51.654;5.476;2024-02-21T10:36:22;11.35;;;4.72;;
72920;SDS011;61064;51.654;5.476;2024-02-21T10:38:49;13.80;;;5.20;;
72920;SDS011;61064;51.654;5.476;2024-02-21T10:41:14;11.33;;;4.93;;
72920;SDS011;61064;51.654;5.476;2024-02-21T10:43:41;12.85;;;4.60;;
72920;SDS011;61064;51.654;5.476;2024-02-21T10:46:08;10.38;;;3.92;;
72920;SDS011;61064;51.654;5.476;2024-02-21T10:48:44;11.67;;;3.90;;
72920;SDS011;61064;51.654;5.476;2024-02-21T10:51:17;11.48;;;4.13;;
72920;SDS011;61064;51.654;5.476;2024-02-21T10:56:38;12.43;;;3.40;;
72920;SDS011;61064;51.654;5.476;2024-02-21T10:59:06;10.95;;;3.45;;
72920;SDS011;61064;51.654;5.476;2024-02-21T11:01:32;10.20;;;3.50;;
72920;SDS011;61064;51.654;5.476;2024-02-21T11:04:04;9.32;;;3.40;;
72920;SDS011;61064;51.654;5.476;2024-02-21T11:06:31;11.23;;;3.80;;
72920;SDS011;61064;51.654;5.476;2024-02-21T11:11:34;11.77;;;3.70;;
72920;SDS011;61064;51.654;5.476;2024-02-21T11:14:09;8.87;;;3.07;;
72920;SDS011;61064;51.654;5.476;2024-02-21T11:16:36;11.70;;;3.50;;
72920;SDS011;61064;51.654;5.476;2024-02-21T11:19:18;8.35;;;2.70;;
72920;SDS011;61064;51.654;5.476;2024-02-21T11:21:45;9.27;;;3.05;;
72920;SDS011;61064;51.654;5.476;2024-02-21T11:24:11;11.50;;;3.70;;
72920;SDS011;61064;51.654;5.476;2024-02-21T11:26:36;10.43;;;3.60;;
72920;SDS011;61064;51.654;5.476;2024-02-21T11:29:05;10.05;;;3.55;;
72920;SDS011;61064;51.654;5.476;2024-02-21T11:31:43;9.75;;;3.28;;
72920;SDS011;61064;51.654;5.476;2024-02-21T11:34:12;9.63;;;3.05;;
72920;SDS011;61064;51.654;5.476;2024-02-21T11:39:20;8.75;;;3.10;;
72920;SDS011;61064;51.654;5.476;2024-02-21T11:42:00;10.33;;;3.07;;
72920;SDS011;61064;51.654;5.476;2024-02-21T11:44:29;9.20;;;3.08;;
72920;SDS011;61064;51.654;5.476;2024-02-21T11:46:55;9.95;;;3.08;;
72920;SDS011;61064;51.654;5.476;2024-02-21T11:49:21;9.80;;;3.10;;
72920;SDS011;61064;51.654;5.476;2024-02-21T11:51:46;8.90;;;2.70;;
72920;SDS011;61064;51.654;5.476;2024-02-21T11:54:11;13.47;;;3.70;;
72920;SDS011;61064;51.654;5.476;2024-02-21T11:56:41;10.10;;;2.93;;
72920;SDS011;61064;51.654;5.476;2024-02-21T11:59:06;9.57;;;2.53;;
72920;SDS011;61064;51.654;5.476;2024-02-21T12:01:32;8.33;;;3.00;;
72920;SDS011;61064;51.654;5.476;2024-02-21T12:03:57;9.90;;;2.80;;
72920;SDS011;61064;51.654;5.476;2024-02-21T12:06:24;12.40;;;3.23;;
72920;SDS011;61064;51.654;5.476;2024-02-21T12:08:49;10.75;;;2.90;;
72920;SDS011;61064;51.654;5.476;2024-02-21T12:11:21;10.17;;;3.20;;
72920;SDS011;61064;51.654;5.476;2024-02-21T12:13:57;10.68;;;3.00;;
72920;SDS011;61064;51.654;5.476;2024-02-21T12:16:24;8.45;;;3.00;;
72920;SDS011;61064;51.654;5.476;2024-02-21T12:18:52;7.80;;;2.90;;
72920;SDS011;61064;51.654;5.476;2024-02-21T12:21:18;8.32;;;2.78;;
72920;SDS011;61064;51.654;5.476;2024-02-21T12:23:43;10.23;;;3.43;;
72920;SDS011;61064;51.654;5.476;2024-02-21T12:26:09;9.03;;;2.70;;
72920;SDS011;61064;51.654;5.476;2024-02-21T12:28:34;8.50;;;2.53;;
72920;SDS011;61064;51.654;5.476;2024-02-21T12:31:00;11.35;;;2.80;;
72920;SDS011;61064;51.654;5.476;2024-02-21T12:33:25;11.33;;;2.80;;
72920;SDS011;61064;51.654;5.476;2024-02-21T12:35:51;10.20;;;2.77;;
72920;SDS011;61064;51.654;5.476;2024-02-21T12:38:16;10.10;;;2.70;;
72920;SDS011;61064;51.654;5.476;2024-02-21T12:40:43;8.02;;;2.42;;
72920;SDS011;61064;51.654;5.476;2024-02-21T12:43:08;10.90;;;2.80;;
72920;SDS011;61064;51.654;5.476;2024-02-21T12:45:34;13.23;;;2.53;;
72920;SDS011;61064;51.654;5.476;2024-02-21T12:48:00;10.43;;;2.57;;
72920;SDS011;61064;51.654;5.476;2024-02-21T12:50:25;10.88;;;2.92;;
72920;SDS011;61064;51.654;5.476;2024-02-21T12:52:50;9.60;;;2.70;;
72920;SDS011;61064;51.654;5.476;2024-02-21T12:55:16;8.03;;;2.50;;
72920;SDS011;61064;51.654;5.476;2024-02-21T12:57:41;9.27;;;2.83;;
72920;SDS011;61064;51.654;5.476;2024-02-21T13:00:07;8.93;;;2.70;;
72920;SDS011;61064;51.654;5.476;2024-02-21T13:02:34;8.17;;;2.50;;
72920;SDS011;61064;51.654;5.476;2024-02-21T13:05:00;10.73;;;2.40;;
72920;SDS011;61064;51.654;5.476;2024-02-21T13:07:27;7.68;;;2.75;;
72920;SDS011;61064;51.654;5.476;2024-02-21T13:09:52;9.87;;;2.57;;
72920;SDS011;61064;51.654;5.476;2024-02-21T13:12:22;10.15;;;2.90;;
72920;SDS011;61064;51.654;5.476;2024-02-21T13:14:47;9.20;;;2.83;;
72920;SDS011;61064;51.654;5.476;2024-02-21T13:17:12;10.10;;;2.70;;
72920;SDS011;61064;51.654;5.476;2024-02-21T13:19:40;9.32;;;2.55;;
72920;SDS011;61064;51.654;5.476;2024-02-21T13:22:07;9.63;;;2.40;;
72920;SDS011;61064;51.654;5.476;2024-02-21T13:24:34;10.00;;;2.40;;
72920;SDS011;61064;51.654;5.476;2024-02-21T13:27:00;10.80;;;2.47;;
72920;SDS011;61064;51.654;5.476;2024-02-21T13:29:25;10.17;;;2.70;;
72920;SDS011;61064;51.654;5.476;2024-02-21T13:31:51;8.03;;;2.30;;
72920;SDS011;61064;51.654;5.476;2024-02-21T13:34:16;9.88;;;2.22;;
72920;SDS011;61064;51.654;5.476;2024-02-21T13:36:43;8.80;;;2.10;;
72920;SDS011;61064;51.654;5.476;2024-02-21T13:39:08;11.00;;;2.00;;
72920;SDS011;61064;51.654;5.476;2024-02-21T13:41:37;9.35;;;1.83;;
72920;SDS011;61064;51.654;5.476;2024-02-21T13:44:03;6.40;;;1.60;;
72920;SDS011;61064;51.654;5.476;2024-02-21T13:46:28;8.33;;;1.63;;
72920;SDS011;61064;51.654;5.476;2024-02-21T13:48:54;7.32;;;1.85;;
72920;SDS011;61064;51.654;5.476;2024-02-21T13:51:29;7.90;;;1.93;;
72920;SDS011;61064;51.654;5.476;2024-02-21T13:53:55;7.93;;;1.70;;
72920;SDS011;61064;51.654;5.476;2024-02-21T13:56:20;8.43;;;1.80;;
72920;SDS011;61064;51.654;5.476;2024-02-21T13:58:45;8.13;;;1.80;;
72920;SDS011;61064;51.654;5.476;2024-02-21T14:01:11;8.07;;;1.90;;
72920;SDS011;61064;51.654;5.476;2024-02-21T14:03:36;7.73;;;1.60;;
72920;SDS011;61064;51.654;5.476;2024-02-21T14:06:01;8.77;;;1.70;;
72920;SDS011;61064;51.654;5.476;2024-02-21T14:08:27;6.60;;;1.40;;
72920;SDS011;61064;51.654;5.476;2024-02-21T14:10:52;7.20;;;1.73;;
72920;SDS011;61064;51.654;5.476;2024-02-21T14:13:20;7.95;;;1.67;;
72920;SDS011;61064;51.654;5.476;2024-02-21T14:15:46;6.97;;;1.90;;
72920;SDS011;61064;51.654;5.476;2024-02-21T14:18:13;9.30;;;1.90;;
72920;SDS011;61064;51.654;5.476;2024-02-21T14:20:39;8.02;;;1.75;;
72920;SDS011;61064;51.654;5.476;2024-02-21T14:23:04;7.17;;;1.90;;
72920;SDS011;61064;51.654;5.476;2024-02-21T14:25:29;10.23;;;2.43;;
72920;SDS011;61064;51.654;5.476;2024-02-21T14:27:55;7.30;;;1.90;;
72920;SDS011;61064;51.654;5.476;2024-02-21T14:30:20;8.95;;;1.80;;
72920;SDS011;61064;51.654;5.476;2024-02-21T14:32:46;8.50;;;1.70;;
72920;SDS011;61064;51.654;5.476;2024-02-21T14:35:11;6.77;;;1.90;;
72920;SDS011;61064;51.654;5.476;2024-02-21T14:37:36;9.03;;;2.70;;
72920;SDS011;61064;51.654;5.476;2024-02-21T14:40:02;8.53;;;1.97;;
72920;SDS011;61064;51.654;5.476;2024-02-21T14:42:28;6.80;;;1.73;;
72920;SDS011;61064;51.654;5.476;2024-02-21T14:44:53;7.27;;;2.00;;